createdAt,value
2017-03-27T00:00:00.105Z,29.3
2017-03-27T00:00:58.617Z,29.3
2017-03-27T00:01:58.773Z,29.3
2017-03-27T00:02:58.905Z,29.3
2017-03-27T00:04:00.671Z,29.3
2017-03-27T00:05:00.579Z,29.3
2017-03-27T00:06:00.516Z,29.3
2017-03-27T00:07:00.678Z,29.3
2017-03-27T00:08:00.793Z,29.3
2017-03-27T00:09:00.736Z,29.3
2017-03-27T00:10:01.020Z,29.2
2017-03-27T00:10:59.346Z,29.3
2017-03-27T00:11:59.270Z,29.3
2017-03-27T00:12:59.351Z,29.3
2017-03-27T00:13:59.444Z,29.3
2017-03-27T00:15:01.126Z,29.3
2017-03-27T00:15:59.876Z,29.3
2017-03-27T00:16:59.797Z,29.3
2017-03-27T00:18:01.307Z,29.3
2017-03-27T00:18:59.868Z,29.3
2017-03-27T00:19:59.807Z,29.3
2017-03-27T00:21:01.485Z,29.3
2017-03-27T00:22:01.623Z,29.2
2017-03-27T00:22:59.970Z,29.3
2017-03-27T00:24:01.609Z,29.3
2017-03-27T00:25:00.168Z,29.3
2017-03-27T00:26:00.278Z,29.3
2017-03-27T00:27:01.856Z,29.3
2017-03-27T00:28:00.354Z,29.3
2017-03-27T00:29:01.826Z,29.3
2017-03-27T00:30:02.008Z,29.3
2017-03-27T00:31:00.348Z,29.2
2017-03-27T00:32:02.080Z,29.3
2017-03-27T00:33:02.105Z,29.3
2017-03-27T00:34:00.848Z,29.2
2017-03-27T00:35:00.730Z,29.2
2017-03-27T00:36:02.335Z,29.2
2017-03-27T00:37:02.316Z,29.2
2017-03-27T00:38:00.949Z,29.2
2017-03-27T00:39:02.573Z,29.2
2017-03-27T00:40:02.756Z,29.2
2017-03-27T00:41:02.695Z,29.2
2017-03-27T00:42:00.992Z,29.2
2017-03-27T00:43:01.186Z,29.2
2017-03-27T00:44:01.125Z,29.2
2017-03-27T00:45:01.302Z,29.2
2017-03-27T00:46:01.307Z,29.2
2017-03-27T00:47:02.863Z,29.2
2017-03-27T00:48:02.971Z,29.2
2017-03-27T00:49:03.136Z,29.2
2017-03-27T00:50:01.639Z,29.2
2017-03-27T00:51:01.735Z,29.2
2017-03-27T00:52:03.400Z,29.2
2017-03-27T00:53:03.272Z,29.2
2017-03-27T00:54:01.870Z,29.2
2017-03-27T00:55:03.492Z,29.2
2017-03-27T00:56:01.996Z,29.2
2017-03-27T00:57:03.587Z,29.2
2017-03-27T00:58:03.736Z,29.2
2017-03-27T00:59:02.161Z,29.2
2017-03-27T01:00:02.040Z,29.2
2017-03-27T01:01:02.090Z,29.2
2017-03-27T01:02:03.814Z,29.2
2017-03-27T01:03:03.749Z,29.2
2017-03-27T01:04:03.994Z,29.2
2017-03-27T01:05:02.406Z,29.2
2017-03-27T01:06:02.463Z,29.2
2017-03-27T01:07:03.962Z,29.2
2017-03-27T01:08:02.621Z,29.2
2017-03-27T01:09:04.152Z,29.2
2017-03-27T01:10:04.337Z,29.2
2017-03-27T01:11:02.636Z,29.2
2017-03-27T01:12:04.321Z,29.2
2017-03-27T01:13:02.620Z,29.2
2017-03-27T01:14:04.311Z,29.2
2017-03-27T01:15:04.478Z,29.2
2017-03-27T01:16:03.173Z,29.2
2017-03-27T01:17:04.623Z,29.2
2017-03-27T01:18:04.654Z,29.1
2017-03-27T01:19:04.678Z,29.2
2017-03-27T01:20:04.743Z,29.1
2017-03-27T01:21:03.266Z,29.2
2017-03-27T01:22:03.453Z,29.2
2017-03-27T01:23:03.293Z,29.2
2017-03-27T01:24:03.389Z,29.2
2017-03-27T01:25:03.298Z,29.2
2017-03-27T01:26:03.324Z,29.2
2017-03-27T01:27:03.519Z,29.2
2017-03-27T01:28:03.685Z,29.2
2017-03-27T01:29:03.679Z,29.2
2017-03-27T01:30:03.732Z,29.2
2017-03-27T01:31:03.606Z,29.1
2017-03-27T01:32:03.759Z,29.1
2017-03-27T01:33:05.368Z,29.1
2017-03-27T01:34:05.570Z,29.2
2017-03-27T01:35:03.817Z,29.2
2017-03-27T01:36:03.879Z,29.1
2017-03-27T01:37:05.524Z,29.1
2017-03-27T01:38:03.990Z,29.1
2017-03-27T01:39:05.629Z,29.1
2017-03-27T01:40:06.027Z,29.1
2017-03-27T01:41:05.898Z,29.1
2017-03-27T01:42:05.814Z,29.1
2017-03-27T01:43:06.021Z,29.1
2017-03-27T01:44:04.342Z,29.1
2017-03-27T01:45:05.909Z,29.1
2017-03-27T01:46:04.632Z,29.1
2017-03-27T01:47:04.429Z,29.1
2017-03-27T01:48:04.484Z,29.1
2017-03-27T01:49:04.657Z,29.1
2017-03-27T01:50:06.179Z,29.1
2017-03-27T01:51:06.350Z,29.1
2017-03-27T01:52:04.912Z,29.1
2017-03-27T01:53:06.370Z,29.1
2017-03-27T01:54:04.894Z,29.1
2017-03-27T01:55:05.025Z,29.1
2017-03-27T01:56:06.638Z,29.1
2017-03-27T01:57:05.108Z,29.1
2017-03-27T01:58:05.144Z,29.1
2017-03-27T01:59:06.800Z,29.1
2017-03-27T02:00:05.101Z,29.1
2017-03-27T02:01:05.119Z,29.1
2017-03-27T02:02:06.897Z,29.1
2017-03-27T02:03:05.216Z,29.1
2017-03-27T02:04:07.021Z,29.1
2017-03-27T02:05:07.015Z,29.1
2017-03-27T02:06:07.025Z,29.1
2017-03-27T02:07:07.006Z,29.1
2017-03-27T02:08:07.193Z,29.1
2017-03-27T02:09:07.087Z,29.1
2017-03-27T02:10:07.362Z,29.1
2017-03-27T02:11:05.699Z,29.1
2017-03-27T02:12:05.782Z,29.1
2017-03-27T02:13:07.395Z,29.1
2017-03-27T02:14:07.413Z,29.1
2017-03-27T02:15:07.326Z,29.1
2017-03-27T02:16:05.955Z,29.1
2017-03-27T02:17:05.870Z,29.1
2017-03-27T02:18:06.045Z,29.1
2017-03-27T02:19:07.517Z,29.1
2017-03-27T02:20:06.071Z,29.1
2017-03-27T02:21:07.583Z,29.1
2017-03-27T02:22:06.200Z,29.1
2017-03-27T02:23:06.222Z,29.1
2017-03-27T02:24:06.241Z,29.1
2017-03-27T02:25:06.246Z,29.1
2017-03-27T02:26:06.119Z,29.1
2017-03-27T02:27:06.150Z,29.1
2017-03-27T02:28:08.042Z,29.1
2017-03-27T02:29:06.399Z,29.1
2017-03-27T02:30:07.874Z,29
2017-03-27T02:31:07.894Z,29.1
2017-03-27T02:32:08.017Z,29.1
2017-03-27T02:33:08.106Z,29.1
2017-03-27T02:34:08.315Z,29.1
2017-03-27T02:35:08.250Z,29.1
2017-03-27T02:36:08.208Z,29.1
2017-03-27T02:37:06.647Z,29.1
2017-03-27T02:38:08.339Z,29.1
2017-03-27T02:39:06.826Z,29.1
2017-03-27T02:40:07.000Z,29
2017-03-27T02:41:06.872Z,29.1
2017-03-27T02:42:08.529Z,29.1
2017-03-27T02:43:07.146Z,29.1
2017-03-27T02:44:07.068Z,29
2017-03-27T02:45:08.816Z,29.1
2017-03-27T02:46:09.176Z,29.1
2017-03-27T02:47:07.263Z,29
2017-03-27T02:48:07.414Z,29.1
2017-03-27T02:49:07.440Z,29.1
2017-03-27T02:50:09.128Z,29.1
2017-03-27T02:51:07.440Z,29.1
2017-03-27T02:52:07.759Z,29.1
2017-03-27T02:53:09.157Z,29.1
2017-03-27T02:54:09.360Z,29.1
2017-03-27T02:55:09.226Z,29.1
2017-03-27T02:56:09.337Z,29
2017-03-27T02:57:09.438Z,29.1
2017-03-27T02:58:07.934Z,29
2017-03-27T02:59:09.517Z,29.1
2017-03-27T03:00:07.900Z,29
2017-03-27T03:01:08.004Z,29.1
2017-03-27T03:02:07.922Z,29
2017-03-27T03:03:08.070Z,29.1
2017-03-27T03:04:10.524Z,29.1
2017-03-27T03:05:08.245Z,29.1
2017-03-27T03:06:10.003Z,29
2017-03-27T03:07:08.422Z,29.1
2017-03-27T03:08:08.498Z,29
2017-03-27T03:09:08.490Z,29.1
2017-03-27T03:10:10.317Z,29.1
2017-03-27T03:11:08.728Z,29.1
2017-03-27T03:12:08.620Z,29.1
2017-03-27T03:13:10.349Z,29.1
2017-03-27T03:14:08.679Z,29.1
2017-03-27T03:15:08.717Z,29
2017-03-27T03:16:10.618Z,29.1
2017-03-27T03:17:10.412Z,29.1
2017-03-27T03:18:10.486Z,29.1
2017-03-27T03:19:10.698Z,29.1
2017-03-27T03:20:10.604Z,29.1
2017-03-27T03:21:10.757Z,29
2017-03-27T03:22:09.473Z,29.1
2017-03-27T03:23:10.962Z,29
2017-03-27T03:24:10.861Z,29
2017-03-27T03:25:10.946Z,29.1
2017-03-27T03:26:11.029Z,29
2017-03-27T03:27:11.025Z,29.1
2017-03-27T03:28:11.356Z,29
2017-03-27T03:29:09.552Z,29
2017-03-27T03:30:09.589Z,29
2017-03-27T03:31:11.384Z,29.1
2017-03-27T03:32:11.375Z,29
2017-03-27T03:33:11.455Z,29
2017-03-27T03:34:11.547Z,29
2017-03-27T03:35:11.420Z,29
2017-03-27T03:36:11.592Z,29
2017-03-27T03:37:10.111Z,29.1
2017-03-27T03:38:10.143Z,29.1
2017-03-27T03:39:10.211Z,29.1
2017-03-27T03:40:10.262Z,29.1
2017-03-27T03:41:11.741Z,29.1
2017-03-27T03:42:11.775Z,29.1
2017-03-27T03:43:10.313Z,29.1
2017-03-27T03:44:10.516Z,29.1
2017-03-27T03:45:12.043Z,29.1
2017-03-27T03:46:12.105Z,29.1
2017-03-27T03:47:12.288Z,29.1
2017-03-27T03:48:12.314Z,29.1
2017-03-27T03:49:10.749Z,29.1
2017-03-27T03:50:10.799Z,29.1
2017-03-27T03:51:10.879Z,29.1
2017-03-27T03:52:12.367Z,29.1
2017-03-27T03:53:10.856Z,29.1
2017-03-27T03:54:11.065Z,29.1
2017-03-27T03:55:11.061Z,29.1
2017-03-27T03:56:11.132Z,29.1
2017-03-27T03:57:12.699Z,29.1
2017-03-27T03:58:11.155Z,29.1
2017-03-27T03:59:12.673Z,29.1
2017-03-27T04:00:12.758Z,29.1
2017-03-27T04:01:12.828Z,29.1
2017-03-27T04:02:12.795Z,29.1
2017-03-27T04:03:11.206Z,29.1
2017-03-27T04:04:11.235Z,29.1
2017-03-27T04:05:11.322Z,29.1
2017-03-27T04:06:11.328Z,29.1
2017-03-27T04:07:11.506Z,29.1
2017-03-27T04:08:13.176Z,29.1
2017-03-27T04:09:11.657Z,29.1
2017-03-27T04:10:13.164Z,29.1
2017-03-27T04:11:11.629Z,29.1
2017-03-27T04:12:11.668Z,29.1
2017-03-27T04:13:13.488Z,29.1
2017-03-27T04:14:11.986Z,29.1
2017-03-27T04:15:13.552Z,29.1
2017-03-27T04:16:11.930Z,29.1
2017-03-27T04:17:13.727Z,29.1
2017-03-27T04:18:12.146Z,29.1
2017-03-27T04:19:12.206Z,29.1
2017-03-27T04:20:13.960Z,29.1
2017-03-27T04:21:13.855Z,29.1
2017-03-27T04:22:14.179Z,29.1
2017-03-27T04:23:14.018Z,29.1
2017-03-27T04:24:12.506Z,29.1
2017-03-27T04:25:14.296Z,29.1
2017-03-27T04:26:14.178Z,29.1
2017-03-27T04:27:12.663Z,29.1
2017-03-27T04:28:14.590Z,29
2017-03-27T04:29:14.468Z,29.1
2017-03-27T04:30:12.972Z,29.1
2017-03-27T04:31:14.552Z,29.1
2017-03-27T04:32:12.965Z,29.1
2017-03-27T04:33:14.714Z,29.1
2017-03-27T04:34:14.787Z,29
2017-03-27T04:35:13.087Z,29.1
2017-03-27T04:36:13.135Z,29.1
2017-03-27T04:37:13.239Z,29.1
2017-03-27T04:38:15.642Z,29.1
2017-03-27T04:39:15.062Z,29.1
2017-03-27T04:40:13.359Z,29.1
2017-03-27T04:41:14.986Z,29.1
2017-03-27T04:42:13.404Z,29.1
2017-03-27T04:43:15.236Z,29.1
2017-03-27T04:44:13.575Z,29.1
2017-03-27T04:45:13.807Z,29.1
2017-03-27T04:46:13.679Z,29.1
2017-03-27T04:47:15.298Z,29.1
2017-03-27T04:48:15.491Z,29.1
2017-03-27T04:49:15.482Z,29.1
2017-03-27T04:50:13.931Z,29.1
2017-03-27T04:51:13.979Z,29.1
2017-03-27T04:52:15.635Z,29.1
2017-03-27T04:53:14.247Z,29
2017-03-27T04:54:14.282Z,29
2017-03-27T04:55:15.767Z,29.1
2017-03-27T04:56:15.964Z,29.1
2017-03-27T04:57:16.303Z,29.1
2017-03-27T04:58:16.077Z,29.1
2017-03-27T04:59:14.591Z,29.1
2017-03-27T05:00:16.128Z,29.1
2017-03-27T05:01:16.078Z,29.1
2017-03-27T05:02:14.602Z,29.1
2017-03-27T05:03:16.411Z,29.1
2017-03-27T05:04:16.165Z,29.1
2017-03-27T05:05:16.315Z,29.1
2017-03-27T05:06:16.224Z,29.1
2017-03-27T05:07:16.357Z,29.1
2017-03-27T05:08:14.802Z,29.1
2017-03-27T05:09:16.619Z,29.1
2017-03-27T05:10:16.534Z,29.1
2017-03-27T05:11:16.588Z,29.1
2017-03-27T05:12:15.049Z,29.1
2017-03-27T05:13:15.047Z,29.2
2017-03-27T05:14:16.682Z,29.1
2017-03-27T05:15:17.129Z,29.2
2017-03-27T05:16:16.810Z,29.2
2017-03-27T05:17:16.814Z,29.2
2017-03-27T05:18:15.412Z,29.2
2017-03-27T05:19:15.343Z,29.2
2017-03-27T05:20:17.003Z,29.2
2017-03-27T05:21:17.298Z,29.2
2017-03-27T05:22:17.275Z,29.1
2017-03-27T05:23:17.239Z,29.2
2017-03-27T05:24:17.293Z,29.1
2017-03-27T05:25:15.657Z,29.2
2017-03-27T05:26:15.787Z,29.2
2017-03-27T05:27:16.190Z,29.2
2017-03-27T05:28:16.097Z,29.2
2017-03-27T05:29:17.541Z,29.2
2017-03-27T05:30:16.024Z,29.2
2017-03-27T05:31:16.175Z,29.1
2017-03-27T05:32:17.702Z,29.2
2017-03-27T05:33:16.314Z,29.2
2017-03-27T05:34:17.873Z,29.2
2017-03-27T05:35:17.832Z,29.2
2017-03-27T05:36:17.982Z,29.2
2017-03-27T05:37:18.052Z,29.2
2017-03-27T05:38:17.987Z,29.2
2017-03-27T05:39:18.226Z,29.2
2017-03-27T05:40:17.982Z,29.2
2017-03-27T05:41:18.198Z,29.2
2017-03-27T05:42:18.296Z,29.2
2017-03-27T05:43:18.276Z,29.2
2017-03-27T05:44:18.436Z,29.2
2017-03-27T05:45:17.032Z,29.3
2017-03-27T05:46:18.456Z,29.3
2017-03-27T05:47:18.519Z,29.2
2017-03-27T05:48:16.853Z,29.3
2017-03-27T05:49:18.658Z,29.3
2017-03-27T05:50:18.732Z,29.3
2017-03-27T05:51:19.015Z,29.3
2017-03-27T05:52:18.714Z,29.3
2017-03-27T05:53:17.172Z,29.3
2017-03-27T05:54:18.937Z,29.3
2017-03-27T05:55:18.823Z,29.3
2017-03-27T05:56:17.276Z,29.3
2017-03-27T05:57:17.599Z,29.3
2017-03-27T05:58:19.040Z,29.3
2017-03-27T05:59:17.409Z,29.3
2017-03-27T06:00:17.554Z,29.4
2017-03-27T06:01:19.885Z,29.4
2017-03-27T06:02:18.071Z,29.4
2017-03-27T06:03:18.386Z,29.4
2017-03-27T06:04:22.382Z,29.4
2017-03-27T06:05:19.237Z,29.4
2017-03-27T06:06:19.376Z,29.5
2017-03-27T06:07:19.428Z,29.5
2017-03-27T06:08:17.889Z,29.5
2017-03-27T06:09:18.167Z,29.5
2017-03-27T06:10:19.569Z,29.5
2017-03-27T06:11:18.014Z,29.5
2017-03-27T06:12:20.246Z,29.6
2017-03-27T06:13:20.244Z,29.5
2017-03-27T06:14:18.025Z,29.6
2017-03-27T06:15:18.453Z,29.6
2017-03-27T06:16:19.745Z,29.6
2017-03-27T06:17:18.160Z,29.6
2017-03-27T06:18:19.822Z,29.6
2017-03-27T06:19:19.987Z,29.6
2017-03-27T06:20:18.380Z,29.6
2017-03-27T06:21:18.605Z,29.7
2017-03-27T06:22:20.203Z,29.7
2017-03-27T06:23:20.292Z,29.7
2017-03-27T06:24:20.270Z,29.8
2017-03-27T06:25:20.281Z,29.8
2017-03-27T06:26:18.935Z,29.8
2017-03-27T06:27:20.652Z,29.8
2017-03-27T06:28:18.978Z,29.8
2017-03-27T06:29:19.759Z,29.9
2017-03-27T06:30:19.137Z,29.8
2017-03-27T06:31:19.056Z,29.9
2017-03-27T06:32:19.802Z,29.9
2017-03-27T06:33:20.982Z,30
2017-03-27T06:34:19.475Z,30
2017-03-27T06:35:19.356Z,30
2017-03-27T06:36:19.500Z,30
2017-03-27T06:37:19.549Z,30.1
2017-03-27T06:38:21.164Z,30.1
2017-03-27T06:39:21.334Z,30.1
2017-03-27T06:40:19.672Z,30.1
2017-03-27T06:41:21.166Z,30.1
2017-03-27T06:42:21.265Z,30.1
2017-03-27T06:43:21.359Z,30.2
2017-03-27T06:44:19.895Z,30.1
2017-03-27T06:45:21.661Z,30.2
2017-03-27T06:46:21.490Z,30.2
2017-03-27T06:47:19.914Z,30.2
2017-03-27T06:48:22.207Z,30.2
2017-03-27T06:49:21.710Z,30.3
2017-03-27T06:50:20.037Z,30.3
2017-03-27T06:51:21.892Z,30.3
2017-03-27T06:52:21.900Z,30.3
2017-03-27T06:53:20.412Z,30.3
2017-03-27T06:54:22.726Z,30.4
2017-03-27T06:55:21.979Z,30.4
2017-03-27T06:56:20.390Z,30.4
2017-03-27T06:57:22.248Z,30.4
2017-03-27T06:58:23.155Z,30.4
2017-03-27T06:59:20.723Z,30.5
2017-03-27T07:00:22.267Z,30.5
2017-03-27T07:01:23.170Z,30.5
2017-03-27T07:02:20.926Z,30.5
2017-03-27T07:03:22.684Z,30.5
2017-03-27T07:04:22.545Z,30.5
2017-03-27T07:05:20.933Z,30.5
2017-03-27T07:06:22.593Z,30.6
2017-03-27T07:07:22.010Z,30.6
2017-03-27T07:08:21.659Z,30.7
2017-03-27T07:09:21.701Z,30.7
2017-03-27T07:10:21.601Z,30.7
2017-03-27T07:11:23.332Z,30.7
2017-03-27T07:12:21.582Z,30.8
2017-03-27T07:13:21.811Z,30.8
2017-03-27T07:14:23.230Z,30.9
2017-03-27T07:15:21.814Z,30.9
2017-03-27T07:16:21.799Z,30.9
2017-03-27T07:17:23.328Z,30.9
2017-03-27T07:18:24.678Z,31
2017-03-27T07:19:23.831Z,31
2017-03-27T07:20:25.645Z,31.1
2017-03-27T07:21:22.588Z,31.1
2017-03-27T07:22:22.179Z,31.1
2017-03-27T07:23:23.675Z,31.1
2017-03-27T07:24:25.689Z,31.2
2017-03-27T07:25:23.581Z,31.2
2017-03-27T07:26:24.104Z,31.3
2017-03-27T07:27:24.237Z,31.3
2017-03-27T07:28:22.507Z,31.4
2017-03-27T07:29:23.954Z,31.4
2017-03-27T07:30:22.421Z,31.4
2017-03-27T07:31:24.567Z,31.5
2017-03-27T07:32:23.899Z,31.5
2017-03-27T07:33:22.760Z,31.5
2017-03-27T07:34:24.190Z,31.5
2017-03-27T07:35:23.259Z,31.5
2017-03-27T07:36:22.747Z,31.6
2017-03-27T07:37:24.428Z,31.6
2017-03-27T07:38:24.317Z,31.6
2017-03-27T07:39:24.633Z,31.7
2017-03-27T07:40:22.691Z,31.7
2017-03-27T07:41:24.450Z,31.7
2017-03-27T07:42:24.398Z,31.7
2017-03-27T07:43:26.118Z,31.7
2017-03-27T07:44:23.219Z,31.7
2017-03-27T07:45:25.005Z,31.6
2017-03-27T07:46:24.855Z,31.5
2017-03-27T07:47:24.723Z,31.4
2017-03-27T07:48:23.148Z,31.4
2017-03-27T07:49:24.454Z,31.3
2017-03-27T07:50:24.812Z,31.3
2017-03-27T07:51:25.711Z,31.3
2017-03-27T07:52:25.059Z,31.2
2017-03-27T07:53:25.444Z,31.2
2017-03-27T07:54:25.403Z,31.2
2017-03-27T07:55:23.695Z,31.2
2017-03-27T07:56:23.615Z,31.1
2017-03-27T07:57:28.020Z,31.1
2017-03-27T07:58:26.412Z,31.1
2017-03-27T07:59:27.623Z,31.1
2017-03-27T08:00:23.744Z,31.1
2017-03-27T08:01:26.047Z,31.1
2017-03-27T08:02:25.115Z,31.1
2017-03-27T08:03:24.518Z,31.1
2017-03-27T08:04:25.989Z,31.1
2017-03-27T08:05:25.684Z,31.1
2017-03-27T08:06:25.711Z,31
2017-03-27T08:07:26.100Z,31.1
2017-03-27T08:08:28.309Z,31.1
2017-03-27T08:09:28.153Z,31.2
2017-03-27T08:10:24.649Z,31.3
2017-03-27T08:12:27.284Z,31.5
2017-03-27T08:12:36.522Z,31.7
2017-03-27T08:13:37.350Z,31.8
2017-03-27T08:14:35.547Z,32
2017-03-27T08:15:34.556Z,32
2017-03-27T08:16:35.197Z,32.1
2017-03-27T08:17:36.076Z,32.1
2017-03-27T08:18:35.605Z,32.2
2017-03-27T08:19:35.090Z,32.2
2017-03-27T08:20:36.794Z,32.1
2017-03-27T08:21:36.630Z,32.1
2017-03-27T08:22:37.467Z,32.1
2017-03-27T08:23:36.853Z,32
2017-03-27T08:24:36.636Z,32
2017-03-27T08:25:35.200Z,32
2017-03-27T08:26:37.089Z,31.9
2017-03-27T08:27:37.187Z,31.8
2017-03-27T08:28:35.577Z,31.8
2017-03-27T08:29:38.419Z,31.7
2017-03-27T08:30:35.569Z,31.6
2017-03-27T08:31:35.583Z,31.6
2017-03-27T08:32:38.520Z,31.5
2017-03-27T08:33:36.009Z,31.5
2017-03-27T08:34:37.150Z,31.4
2017-03-27T08:35:38.643Z,31.4
2017-03-27T08:36:36.070Z,31.4
2017-03-27T08:37:37.538Z,31.3
2017-03-27T08:38:37.499Z,31.3
2017-03-27T08:39:35.757Z,31.2
2017-03-27T08:40:37.517Z,31.2
2017-03-27T08:41:38.178Z,31.2
2017-03-27T08:42:37.448Z,31.2
2017-03-27T08:43:36.707Z,31.2
2017-03-27T08:44:36.284Z,31.2
2017-03-27T08:45:36.763Z,31.2
2017-03-27T08:46:37.984Z,31.1
2017-03-27T08:47:38.026Z,31.1
2017-03-27T08:48:38.072Z,31.1
2017-03-27T08:49:36.322Z,31.1
2017-03-27T08:50:36.340Z,31.1
2017-03-27T08:51:39.087Z,31.1
2017-03-27T08:52:40.361Z,31.1
2017-03-27T08:53:39.314Z,31.1
2017-03-27T08:54:37.434Z,31.1
2017-03-27T08:55:36.970Z,31.1
2017-03-27T08:56:38.515Z,31.1
2017-03-27T08:57:36.863Z,31.1
2017-03-27T08:58:38.505Z,31.1
2017-03-27T08:59:38.511Z,31.1
2017-03-27T09:00:40.548Z,31.1
2017-03-27T09:01:38.326Z,31.1
2017-03-27T09:02:37.166Z,31.1
2017-03-27T09:03:38.911Z,31.1
2017-03-27T09:04:38.824Z,31.1
2017-03-27T09:05:38.956Z,31.1
2017-03-27T09:06:38.756Z,31.1
2017-03-27T09:07:39.179Z,31
2017-03-27T09:08:42.475Z,31
2017-03-27T09:09:38.809Z,31
2017-03-27T09:10:38.903Z,31
2017-03-27T09:11:39.928Z,31
2017-03-27T09:12:39.125Z,31
2017-03-27T09:13:39.378Z,31
2017-03-27T09:14:37.724Z,31
2017-03-27T09:15:37.732Z,31
2017-03-27T09:16:39.337Z,31
2017-03-27T09:17:44.193Z,31
2017-03-27T09:18:39.144Z,31
2017-03-27T09:19:39.538Z,31
2017-03-27T09:20:39.251Z,31
2017-03-27T09:21:38.557Z,31
2017-03-27T09:22:39.512Z,31
2017-03-27T09:23:37.977Z,31
2017-03-27T09:24:38.111Z,31
2017-03-27T09:25:41.057Z,30.9
2017-03-27T09:26:39.777Z,31
2017-03-27T09:27:39.676Z,31
2017-03-27T09:28:38.703Z,31
2017-03-27T09:29:39.783Z,31
2017-03-27T09:30:39.808Z,31
2017-03-27T09:31:39.359Z,31
2017-03-27T09:32:41.317Z,31
2017-03-27T09:33:38.529Z,31
2017-03-27T09:34:38.514Z,31
2017-03-27T09:35:38.498Z,31
2017-03-27T09:36:39.192Z,31
2017-03-27T09:37:40.361Z,31
2017-03-27T09:38:40.846Z,31
2017-03-27T09:39:38.646Z,31
2017-03-27T09:40:39.452Z,31
2017-03-27T09:41:40.469Z,31
2017-03-27T09:42:39.366Z,30.9
2017-03-27T09:43:40.719Z,31
2017-03-27T09:44:41.638Z,31
2017-03-27T09:45:38.924Z,31
2017-03-27T09:46:41.058Z,31
2017-03-27T09:47:39.702Z,31
2017-03-27T09:48:40.345Z,30.9
2017-03-27T09:49:39.835Z,31
2017-03-27T09:50:39.905Z,30.9
2017-03-27T09:51:40.573Z,30.9
2017-03-27T09:52:41.604Z,30.9
2017-03-27T09:53:40.477Z,31
2017-03-27T09:54:40.997Z,30.9
2017-03-27T09:55:39.671Z,30.9
2017-03-27T09:56:39.427Z,30.9
2017-03-27T09:57:40.271Z,30.9
2017-03-27T09:58:41.275Z,30.9
2017-03-27T09:59:41.358Z,30.9
2017-03-27T10:00:41.360Z,30.9
2017-03-27T10:01:40.056Z,30.9
2017-03-27T10:02:41.507Z,30.9
2017-03-27T10:03:42.277Z,30.9
2017-03-27T10:04:41.868Z,30.9
2017-03-27T10:05:42.841Z,30.9
2017-03-27T10:06:40.250Z,30.9
2017-03-27T10:07:40.430Z,30.9
2017-03-27T10:08:40.343Z,30.9
2017-03-27T10:09:41.732Z,31
2017-03-27T10:10:41.911Z,31
2017-03-27T10:11:43.096Z,31
2017-03-27T10:12:42.163Z,31
2017-03-27T10:13:40.643Z,31
2017-03-27T10:14:40.544Z,31
2017-03-27T10:15:41.092Z,31
2017-03-27T10:16:41.854Z,31
2017-03-27T10:18:42.360Z,31
2017-03-27T10:19:43.450Z,31
2017-03-27T10:20:42.920Z,31
2017-03-27T10:21:45.281Z,31
2017-03-27T10:22:42.952Z,31
2017-03-27T10:23:42.791Z,31
2017-03-27T10:24:41.060Z,31
2017-03-27T10:25:41.215Z,31
2017-03-27T10:26:41.132Z,31
2017-03-27T10:27:41.102Z,31
2017-03-27T10:28:41.790Z,31
2017-03-27T10:29:42.679Z,31
2017-03-27T10:30:43.527Z,31
2017-03-27T10:31:43.017Z,31
2017-03-27T10:32:43.050Z,31
2017-03-27T10:33:41.362Z,31
2017-03-27T10:34:43.039Z,31
2017-03-27T10:35:41.412Z,31
2017-03-27T10:36:42.323Z,31
2017-03-27T10:37:43.196Z,31
2017-03-27T10:38:42.805Z,31
2017-03-27T10:39:43.263Z,31
2017-03-27T10:40:41.753Z,31
2017-03-27T10:41:41.612Z,31
2017-03-27T10:42:43.785Z,31.1
2017-03-27T10:43:41.667Z,31.1
2017-03-27T10:44:41.579Z,31.1
2017-03-27T10:45:43.299Z,31.1
2017-03-27T10:46:43.292Z,31.1
2017-03-27T10:47:42.055Z,31.1
2017-03-27T10:48:42.076Z,31.1
2017-03-27T10:49:43.372Z,31
2017-03-27T10:50:41.885Z,31.1
2017-03-27T10:51:41.941Z,31.1
2017-03-27T10:52:42.616Z,31.1
2017-03-27T10:53:41.932Z,31.1
2017-03-27T10:54:42.264Z,31.1
2017-03-27T10:55:44.156Z,31.1
2017-03-27T10:56:44.300Z,31.1
2017-03-27T10:57:42.321Z,31.1
2017-03-27T10:58:42.345Z,31.1
2017-03-27T10:59:42.222Z,31.1
2017-03-27T11:00:44.019Z,31.1
2017-03-27T11:01:42.325Z,31.1
2017-03-27T11:02:44.378Z,31.2
2017-03-27T11:03:44.562Z,31.2
2017-03-27T11:04:44.460Z,31.1
2017-03-27T11:05:44.409Z,31.2
2017-03-27T11:06:44.375Z,31.2
2017-03-27T11:07:46.304Z,31.2
2017-03-27T11:08:42.762Z,31.2
2017-03-27T11:09:42.830Z,31.2
2017-03-27T11:10:44.295Z,31.2
2017-03-27T11:11:42.822Z,31.2
2017-03-27T11:12:45.490Z,31.2
2017-03-27T11:13:42.962Z,31.2
2017-03-27T11:14:43.078Z,31.2
2017-03-27T11:15:44.601Z,31.2
2017-03-27T11:16:43.544Z,31.2
2017-03-27T11:17:43.222Z,31.2
2017-03-27T11:18:43.250Z,31.2
2017-03-27T11:19:44.031Z,31.3
2017-03-27T11:20:44.910Z,31.2
2017-03-27T11:21:45.403Z,31.3
2017-03-27T11:22:45.642Z,31.3
2017-03-27T11:23:45.321Z,31.3
2017-03-27T11:24:44.058Z,31.3
2017-03-27T11:25:43.469Z,31.3
2017-03-27T11:26:45.162Z,31.3
2017-03-27T11:27:46.028Z,31.3
2017-03-27T11:28:43.726Z,31.3
2017-03-27T11:29:46.083Z,31.3
2017-03-27T11:30:45.157Z,31.3
2017-03-27T11:31:43.778Z,31.3
2017-03-27T11:32:43.906Z,31.3
2017-03-27T11:33:43.952Z,31.3
2017-03-27T11:34:43.933Z,31.2
2017-03-27T11:35:45.398Z,31.3
2017-03-27T11:36:46.804Z,31.3
2017-03-27T11:37:44.609Z,31.2
2017-03-27T11:38:50.643Z,31.2
2017-03-27T11:39:44.138Z,31.2
2017-03-27T11:40:46.567Z,31.2
2017-03-27T11:41:46.389Z,31.1
2017-03-27T11:42:48.548Z,31.2
2017-03-27T11:43:44.696Z,31.2
2017-03-27T11:44:46.832Z,31.2
2017-03-27T11:45:48.230Z,31.2
2017-03-27T11:46:49.964Z,31
2017-03-27T11:47:48.334Z,31.2
2017-03-27T11:48:48.731Z,31.2
2017-03-27T11:49:47.355Z,31.2
2017-03-27T11:50:47.686Z,31.2
2017-03-27T11:51:53.117Z,31.2
2017-03-27T11:52:47.514Z,31.2
2017-03-27T11:53:47.611Z,31.2
2017-03-27T11:54:46.172Z,31.1
2017-03-27T11:55:44.808Z,31.2
2017-03-27T11:56:46.940Z,31.2
2017-03-27T11:57:47.370Z,31.2
2017-03-27T11:58:45.213Z,31.2
2017-03-27T11:59:47.068Z,31.2
2017-03-27T12:00:46.852Z,31.2
2017-03-27T12:01:46.625Z,31.2
2017-03-27T12:02:51.901Z,31.2
2017-03-27T12:03:47.226Z,31.2
2017-03-27T12:04:46.824Z,31.2
2017-03-27T12:05:47.727Z,31.2
2017-03-27T12:06:48.499Z,31.2
2017-03-27T12:07:47.630Z,31.2
2017-03-27T12:08:51.757Z,31.2
2017-03-27T12:09:48.023Z,31.2
2017-03-27T12:10:48.237Z,31.2
2017-03-27T12:11:46.256Z,31.2
2017-03-27T12:12:45.960Z,31.2
2017-03-27T12:13:47.476Z,31.2
2017-03-27T12:14:47.786Z,31.2
2017-03-27T12:16:46.045Z,31.2
2017-03-27T12:17:48.052Z,31.2
2017-03-27T12:18:46.772Z,31.2
2017-03-27T12:19:47.833Z,31.2
2017-03-27T12:20:46.097Z,31.2
2017-03-27T12:21:51.884Z,31.2
2017-03-27T12:22:46.670Z,31.2
2017-03-27T12:23:48.152Z,31.2
2017-03-27T12:24:46.416Z,31.2
2017-03-27T12:25:47.997Z,31.2
2017-03-27T12:26:48.249Z,31.2
2017-03-27T12:27:48.275Z,31.2
2017-03-27T12:28:46.469Z,31.3
2017-03-27T12:29:48.798Z,31.3
2017-03-27T12:30:48.239Z,31.3
2017-03-27T12:31:46.853Z,31.3
2017-03-27T12:32:49.312Z,31.3
2017-03-27T12:33:47.114Z,31.3
2017-03-27T12:34:49.612Z,31.3
2017-03-27T12:35:50.282Z,31.3
2017-03-27T12:36:50.238Z,31.3
2017-03-27T12:37:49.621Z,31.2
2017-03-27T12:38:47.549Z,31.3
2017-03-27T12:39:49.103Z,31.3
2017-03-27T12:40:47.222Z,31.3
2017-03-27T12:41:48.488Z,31.3
2017-03-27T12:42:49.385Z,31.3
2017-03-27T12:43:49.281Z,31.3
2017-03-27T12:44:47.782Z,31.3
2017-03-27T12:45:47.632Z,31.3
2017-03-27T12:46:48.349Z,31.3
2017-03-27T12:47:49.745Z,31.4
2017-03-27T12:48:49.378Z,31.4
2017-03-27T12:49:49.701Z,31.4
2017-03-27T12:50:50.443Z,31.3
2017-03-27T12:51:49.451Z,31.4
2017-03-27T12:52:49.453Z,31.4
2017-03-27T12:53:50.219Z,31.4
2017-03-27T12:54:49.688Z,31.4
2017-03-27T12:55:49.717Z,31.4
2017-03-27T12:56:49.789Z,31.4
2017-03-27T12:58:48.959Z,31.4
2017-03-27T12:59:48.169Z,31.4
2017-03-27T13:00:50.616Z,31.4
2017-03-27T13:01:50.120Z,31.4
2017-03-27T13:02:49.887Z,31.4
2017-03-27T13:03:50.031Z,31.5
2017-03-27T13:04:53.302Z,31.4
2017-03-27T13:05:50.277Z,31.5
2017-03-27T13:06:52.844Z,31.5
2017-03-27T13:07:49.422Z,31.5
2017-03-27T13:08:49.535Z,31.5
2017-03-27T13:09:50.920Z,31.5
2017-03-27T13:12:02.245Z,31.5
2017-03-27T13:12:48.739Z,31.5
2017-03-27T13:13:48.882Z,31.4
2017-03-27T13:14:50.339Z,31.5
2017-03-27T13:15:53.260Z,31.5
2017-03-27T13:16:50.364Z,31.5
2017-03-27T13:17:51.250Z,31.5
2017-03-27T13:18:50.568Z,31.5
2017-03-27T13:19:51.849Z,31.5
2017-03-27T13:20:50.539Z,31.5
2017-03-27T13:21:49.142Z,31.5
2017-03-27T13:22:50.840Z,31.5
2017-03-27T13:23:59.530Z,31.5
2017-03-27T13:24:51.549Z,31.6
2017-03-27T13:25:50.905Z,31.5
2017-03-27T13:26:51.028Z,31.6
2017-03-27T13:27:51.083Z,31.5
2017-03-27T13:28:49.547Z,31.6
2017-03-27T13:29:49.455Z,31.6
2017-03-27T13:30:49.684Z,31.6